Verdon, Minnesota
Current Conditions -  °F | °C
As of 6:13 PM on Sunday 25 Jan 2015 (Local Time) from KAIT Reporting Station
Clear Clear  
Wind Chill: -6°   Ceiling: Unl
Heat Index: -6°   Visibility: 10mi
Dew Point: -9°   Wind: 0mph
Humidity: 80%   Direction: NA
Pressure: 29.99"   Gusts: NA
Location:  46.7281°N, 93.6101°W
Report Text: KAIT 260013Z AUTO 00000KT 10SM CLR M06/M09 A2999 RMK AO2
Loading
Personal Weather Stations






























Interactive Weather Map New forecast layout! Learn more

10-Day Weather Forecast

Advertisements
Track Severe Weather on mobile